createdAt,value
2023-10-02T00:04:38.272Z,16.45
2023-10-02T00:11:38.001Z,15.32
2023-10-02T00:18:20.428Z,15.25
2023-10-02T00:25:08.908Z,15.30
2023-10-02T00:31:52.035Z,14.23
2023-10-02T00:38:34.322Z,16.02
2023-10-02T00:45:18.184Z,15.45
2023-10-02T00:52:01.257Z,14.30
2023-10-02T00:58:45.028Z,15.27
2023-10-02T01:05:42.434Z,14.35
2023-10-02T01:12:39.024Z,14.40
2023-10-02T01:19:25.582Z,16.65
2023-10-02T01:26:08.259Z,15.27
2023-10-02T01:33:15.125Z,15.18
2023-10-02T01:40:17.352Z,16.33
2023-10-02T01:46:59.656Z,12.60
2023-10-02T01:53:43.068Z,16.40
2023-10-02T02:00:25.248Z,14.25
2023-10-02T02:07:09.309Z,17.65
2023-10-02T02:13:56.314Z,12.75
2023-10-02T02:20:45.007Z,13.45
2023-10-02T02:27:28.062Z,11.90
2023-10-02T02:34:21.373Z,14.82
2023-10-02T02:41:07.657Z,16.63
2023-10-02T02:47:51.950Z,15.13
2023-10-02T02:54:34.930Z,16.92
2023-10-02T03:01:25.429Z,16.75
2023-10-02T03:08:13.433Z,15.25
2023-10-02T03:14:56.630Z,16.73
2023-10-02T03:21:48.664Z,17.08
2023-10-02T03:28:35.608Z,17.83
2023-10-02T03:35:19.263Z,15.60
2023-10-02T03:42:02.669Z,12.90
2023-10-02T03:48:51.672Z,14.38
2023-10-02T03:55:34.196Z,15.13
2023-10-02T04:02:26.302Z,15.55
2023-10-02T04:09:18.329Z,17.20
2023-10-02T04:16:19.463Z,15.75
2023-10-02T04:23:19.603Z,14.07
2023-10-02T04:30:13.916Z,19.42
2023-10-02T04:36:56.267Z,14.48
2023-10-02T04:43:38.569Z,21.63
2023-10-02T04:50:23.982Z,18.38
2023-10-02T04:57:15.463Z,23.25
2023-10-02T05:04:07.321Z,16.63
2023-10-02T05:10:57.411Z,21.42
2023-10-02T05:17:47.930Z,19.40
2023-10-02T05:24:32.641Z,14.88
2023-10-02T05:31:16.423Z,18.65
2023-10-02T05:37:58.712Z,16.80
2023-10-02T05:44:45.237Z,22.70
2023-10-02T05:51:45.837Z,18.98
2023-10-02T05:58:28.302Z,18.33
2023-10-02T06:05:12.529Z,17.08
2023-10-02T06:12:00.437Z,19.30
2023-10-02T06:18:43.452Z,16.60
2023-10-02T06:25:25.895Z,17.95
2023-10-02T06:32:12.218Z,17.90
2023-10-02T06:38:55.547Z,17.05
2023-10-02T06:45:52.992Z,17.73
2023-10-02T06:52:35.310Z,14.85
2023-10-02T06:59:17.664Z,18.38
2023-10-02T07:06:01.123Z,14.85
2023-10-02T07:12:43.925Z,14.20
2023-10-02T07:19:39.037Z,15.95
2023-10-02T07:26:21.558Z,17.85
2023-10-02T07:33:05.005Z,15.73
2023-10-02T07:40:02.075Z,18.63
2023-10-02T07:46:45.063Z,20.20
2023-10-02T07:53:40.333Z,20.38
2023-10-02T08:00:38.464Z,17.20
2023-10-02T08:07:43.001Z,13.35
2023-10-02T08:14:43.955Z,17.63
2023-10-02T08:21:37.986Z,16.88
2023-10-02T08:28:24.109Z,14.63
2023-10-02T08:35:14.717Z,14.32
2023-10-02T08:41:59.880Z,17.30
2023-10-02T08:48:43.957Z,16.58
2023-10-02T08:55:36.712Z,21.60
2023-10-02T09:02:19.062Z,17.48
2023-10-02T09:09:17.912Z,15.75
2023-10-02T09:16:11.301Z,16.33
2023-10-02T09:23:08.705Z,17.65
2023-10-02T09:30:11.066Z,18.17
2023-10-02T09:37:20.744Z,19.40
2023-10-02T09:43:55.886Z,17.92
2023-10-02T09:50:47.291Z,17.27
2023-10-02T09:57:34.777Z,16.65
2023-10-02T10:04:32.792Z,19.52
2023-10-02T10:11:19.321Z,18.10
2023-10-02T10:18:03.901Z,16.90
2023-10-02T10:25:10.651Z,17.27
2023-10-02T10:31:56.516Z,18.13
2023-10-02T10:38:42.330Z,18.42
2023-10-02T10:45:24.887Z,18.73
2023-10-02T10:52:25.071Z,19.33
2023-10-02T10:59:14.102Z,18.98
2023-10-02T11:06:04.968Z,25.02
2023-10-02T11:12:58.941Z,25.63
2023-10-02T11:19:47.052Z,23.73
2023-10-02T11:26:29.966Z,26.25
2023-10-02T11:33:13.501Z,21.73
2023-10-02T11:39:57.242Z,26.55
2023-10-02T11:46:49.116Z,25.23
2023-10-02T11:53:31.453Z,30.05
2023-10-02T12:00:14.229Z,34.60
2023-10-02T12:06:57.325Z,33.83
2023-10-02T12:13:39.853Z,30.48
2023-10-02T12:20:23.610Z,29.33
2023-10-02T12:27:11.209Z,32.05
2023-10-02T12:33:53.729Z,30.38
2023-10-02T12:40:36.143Z,31.40
2023-10-02T12:47:19.011Z,32.85
2023-10-02T12:54:02.711Z,29.33
2023-10-02T13:00:45.852Z,28.25
2023-10-02T13:07:29.340Z,39.15
2023-10-02T13:14:19.990Z,31.77
2023-10-02T13:21:10.654Z,31.05
2023-10-02T13:27:53.073Z,35.83
2023-10-02T13:34:35.349Z,35.75
2023-10-02T13:41:18.250Z,34.25
2023-10-02T13:48:00.610Z,32.38
2023-10-02T13:54:43.099Z,34.30
2023-10-02T14:01:26.294Z,32.42
2023-10-02T14:08:08.805Z,34.17
2023-10-02T14:14:53.523Z,34.47
2023-10-02T14:21:35.875Z,32.72
2023-10-02T14:28:18.185Z,30.20
2023-10-02T14:35:00.476Z,30.05
2023-10-02T14:41:43.958Z,30.08
2023-10-02T14:48:45.217Z,29.00
2023-10-02T14:55:29.310Z,29.40
2023-10-02T15:02:11.745Z,29.15
2023-10-02T15:09:03.587Z,27.02
2023-10-02T15:15:46.046Z,33.25
2023-10-02T15:22:32.991Z,30.52
2023-10-02T15:29:15.944Z,29.70
2023-10-02T15:35:58.337Z,31.60
2023-10-02T15:42:44.076Z,27.67
2023-10-02T15:49:27.246Z,28.88
2023-10-02T15:56:14.016Z,32.25
2023-10-02T16:03:04.139Z,30.58
2023-10-02T16:09:46.565Z,31.83
2023-10-02T16:16:29.039Z,29.55
2023-10-02T16:23:11.391Z,31.17
2023-10-02T16:29:53.694Z,36.28
2023-10-02T16:36:35.875Z,41.75
2023-10-02T16:43:18.146Z,42.88
2023-10-02T16:50:01.951Z,48.78
2023-10-02T16:56:44.799Z,60.22
2023-10-02T17:03:27.891Z,41.90
2023-10-02T17:10:20.746Z,39.58
2023-10-02T17:17:03.176Z,42.63
2023-10-02T17:23:45.729Z,37.50
2023-10-02T17:30:28.908Z,35.33
2023-10-02T17:37:11.173Z,40.05
2023-10-02T17:43:54.084Z,42.22
2023-10-02T17:50:36.465Z,41.95
2023-10-02T17:57:18.800Z,39.10
2023-10-02T18:04:01.221Z,37.38
2023-10-02T18:10:49.420Z,60.13
2023-10-02T18:17:32.425Z,42.83
2023-10-02T18:24:15.568Z,41.67
2023-10-02T18:30:58.240Z,45.95
2023-10-02T18:37:43.420Z,38.30
2023-10-02T18:44:26.245Z,42.88
2023-10-02T18:51:27.382Z,43.80
2023-10-02T18:58:12.636Z,44.60
2023-10-02T19:04:56.361Z,39.13
2023-10-02T19:11:39.216Z,39.35
2023-10-02T19:18:21.700Z,42.63
2023-10-02T19:25:04.302Z,38.83
2023-10-02T19:31:48.615Z,40.33
2023-10-02T19:38:32.245Z,40.60
2023-10-02T19:45:14.761Z,39.65
2023-10-02T19:51:59.874Z,43.28
2023-10-02T19:58:44.735Z,44.08
2023-10-02T20:05:30.561Z,44.40
2023-10-02T20:12:14.026Z,42.38
2023-10-02T20:18:56.278Z,48.55
2023-10-02T20:25:39.070Z,50.70
2023-10-02T20:32:26.563Z,44.08
2023-10-02T20:39:16.347Z,47.25
2023-10-02T20:46:02.744Z,53.83
2023-10-02T20:52:47.096Z,42.75
2023-10-02T20:59:30.786Z,43.13
2023-10-02T21:06:14.050Z,48.47
2023-10-02T21:12:56.508Z,45.80
2023-10-02T21:19:48.163Z,44.80
2023-10-02T21:26:31.708Z,55.80
2023-10-02T21:33:14.534Z,50.50
2023-10-02T21:39:58.237Z,47.03
2023-10-02T21:46:40.638Z,50.05
2023-10-02T21:53:23.061Z,44.47
2023-10-02T22:00:26.539Z,42.72
2023-10-02T22:07:08.939Z,45.28
2023-10-02T22:13:51.390Z,39.67
2023-10-02T22:20:34.176Z,44.97
2023-10-02T22:27:16.570Z,46.15
2023-10-02T22:33:58.836Z,46.50
2023-10-02T22:40:41.306Z,45.88
2023-10-02T22:47:23.615Z,41.25
2023-10-02T22:54:06.268Z,43.05
2023-10-02T23:00:48.559Z,41.60
2023-10-02T23:07:30.920Z,45.20
2023-10-02T23:14:13.439Z,43.10
2023-10-02T23:20:59.249Z,42.40
2023-10-02T23:27:42.781Z,42.58
2023-10-02T23:34:25.105Z,41.67
2023-10-02T23:41:07.545Z,43.03
2023-10-02T23:48:13.352Z,45.97
2023-10-02T23:54:59.480Z,44.03
